KLM271 EHAM-LPPT
Flight info
| Callsign | KLM271 |
|---|---|
| Flight time | N/A |
| Altitude | 38000 |
| Route | WOODY N872 MEDIL DCT KOVIN DCT NIDUV DCT KIHVI UN872 ERIGA UZ218 FUJTI DCT ATLEN DCT ABUPI DCT XAMAX |
| Aircraft | B77W/H-SDE1E2E3FGHIJ2J3J4J5M1RWXY/LB1D1 |
Departure
| Time | 2026-05-05 22:35 |
|---|---|
| Airport | Amsterdam Airport Schiphol (EHAM) |
Arrival
| Time | N/A |
|---|---|
| Airport | Lisbon Humberto Delgado Airport (LPPT) |
| Time | Latitude | Longitude | Altitude | Speed | Heading |
|---|---|---|---|---|---|
| 2026-05-05 22:06 | 52.31233 | 4.76315 | 4 ft | 0 kts | 268° |
| 2026-05-05 22:19 | 52.31233 | 4.76316 | 4 ft | 2 kts | 268° |
| 2026-05-05 22:19 | 52.31233 | 4.76357 | 5 ft | 4 kts | 281° |
| 2026-05-05 22:19 | 52.31225 | 4.76398 | 6 ft | 4 kts | 303° |
| 2026-05-05 22:19 | 52.31207 | 4.76426 | 6 ft | 4 kts | 344° |
| 2026-05-05 22:20 | 52.31196 | 4.76429 | 6 ft | 0 kts | 6° |
| 2026-05-05 22:23 | 52.31262 | 4.76453 | 4 ft | 12 kts | 7° |
| 2026-05-05 22:23 | 52.31342 | 4.76436 | 4 ft | 12 kts | 340° |
| 2026-05-05 22:24 | 52.31419 | 4.76396 | 4 ft | 12 kts | 342° |
| 2026-05-05 22:24 | 52.31494 | 4.76349 | 4 ft | 12 kts | 324° |
| 2026-05-05 22:24 | 52.31531 | 4.76233 | 4 ft | 12 kts | 278° |
| 2026-05-05 22:24 | 52.31533 | 4.76100 | 4 ft | 12 kts | 268° |
| 2026-05-05 22:25 | 52.31529 | 4.75941 | 4 ft | 18 kts | 267° |
| 2026-05-05 22:25 | 52.31522 | 4.75738 | 4 ft | 18 kts | 266° |
| 2026-05-05 22:25 | 52.31515 | 4.75534 | 4 ft | 18 kts | 266° |
| 2026-05-05 22:25 | 52.31507 | 4.75330 | 4 ft | 18 kts | 266° |
| 2026-05-05 22:26 | 52.31500 | 4.75126 | 4 ft | 18 kts | 267° |
| 2026-05-05 22:26 | 52.31495 | 4.74923 | 4 ft | 18 kts | 267° |
| 2026-05-05 22:26 | 52.31487 | 4.74719 | 4 ft | 18 kts | 267° |
| 2026-05-05 22:26 | 52.31481 | 4.74514 | 4 ft | 18 kts | 267° |
| 2026-05-05 22:27 | 52.31476 | 4.74373 | 4 ft | 10 kts | 270° |
| 2026-05-05 22:27 | 52.31526 | 4.74303 | 4 ft | 11 kts | 351° |
| 2026-05-05 22:27 | 52.31599 | 4.74302 | 4 ft | 11 kts | 0° |
| 2026-05-05 22:27 | 52.31673 | 4.74310 | 4 ft | 11 kts | 5° |
| 2026-05-05 22:28 | 52.31746 | 4.74319 | 4 ft | 11 kts | 1° |
| 2026-05-05 22:28 | 52.31839 | 4.74326 | 4 ft | 17 kts | 4° |
| 2026-05-05 22:28 | 52.31956 | 4.74338 | 4 ft | 11 kts | 3° |
| 2026-05-05 22:28 | 52.32017 | 4.74290 | 4 ft | 11 kts | 295° |
| 2026-05-05 22:29 | 52.32032 | 4.74172 | 4 ft | 11 kts | 274° |
| 2026-05-05 22:29 | 52.32037 | 4.74048 | 3 ft | 11 kts | 273° |
| 2026-05-05 22:29 | 52.32041 | 4.73913 | 3 ft | 12 kts | 273° |
| 2026-05-05 22:29 | 52.32047 | 4.73772 | 4 ft | 12 kts | 274° |
| 2026-05-05 22:30 | 52.32055 | 4.73540 | 4 ft | 24 kts | 273° |
| 2026-05-05 22:30 | 52.32133 | 4.73322 | 4 ft | 20 kts | 318° |
| 2026-05-05 22:30 | 52.32233 | 4.73154 | 4 ft | 23 kts | 320° |
| 2026-05-05 22:30 | 52.32382 | 4.72946 | 4 ft | 33 kts | 319° |
| 2026-05-05 22:31 | 52.32546 | 4.72714 | 4 ft | 31 kts | 319° |
| 2026-05-05 22:31 | 52.32713 | 4.72461 | 4 ft | 33 kts | 312° |
| 2026-05-05 22:31 | 52.32859 | 4.72186 | 4 ft | 26 kts | 311° |
| 2026-05-05 22:31 | 52.32981 | 4.71963 | 4 ft | 26 kts | 311° |
| 2026-05-05 22:32 | 52.33072 | 4.71792 | 4 ft | 17 kts | 311° |
| 2026-05-05 22:32 | 52.33142 | 4.71635 | 4 ft | 17 kts | 290° |
| 2026-05-05 22:32 | 52.33103 | 4.71462 | 4 ft | 17 kts | 226° |
| 2026-05-05 22:32 | 52.33015 | 4.71328 | 4 ft | 17 kts | 222° |
| 2026-05-05 22:33 | 52.32930 | 4.71208 | 4 ft | 16 kts | 220° |
| 2026-05-05 22:33 | 52.32867 | 4.71087 | 4 ft | 14 kts | 249° |
| 2026-05-05 22:33 | 52.32864 | 4.70980 | 3 ft | 7 kts | 273° |
| 2026-05-05 22:33 | 52.32869 | 4.70903 | 3 ft | 5 kts | 288° |
| 2026-05-05 22:34 | 52.32886 | 4.70894 | 3 ft | 0 kts | 5° |
| 2026-05-05 22:34 | 52.32899 | 4.70895 | 3 ft | 12 kts | 5° |
| 2026-05-05 22:34 | 52.33214 | 4.70929 | 1 ft | 86 kts | 2° |
| 2026-05-05 22:35 | 52.34046 | 4.71004 | 2 ft | 154 kts | 3° |
| 2026-05-05 22:35 | 52.35268 | 4.71100 | 252 ft | 186 kts | 2° |
| 2026-05-05 22:35 | 52.36593 | 4.71183 | 831 ft | 196 kts | 5° |
| 2026-05-05 22:35 | 52.37958 | 4.71346 | 1796 ft | 192 kts | 6° |
| 2026-05-05 22:36 | 52.39346 | 4.71491 | 2421 ft | 209 kts | 5° |
| 2026-05-05 22:36 | 52.40891 | 4.71645 | 2780 ft | 236 kts | 5° |
| 2026-05-05 22:36 | 52.42526 | 4.72018 | 3515 ft | 238 kts | 22° |
| 2026-05-05 22:36 | 52.43883 | 4.73514 | 4395 ft | 234 kts | 37° |
| 2026-05-05 22:37 | 52.45225 | 4.75192 | 4933 ft | 249 kts | 38° |
| 2026-05-05 22:37 | 52.46263 | 4.77502 | 5549 ft | 261 kts | 70° |
| 2026-05-05 22:37 | 52.46425 | 4.80502 | 6271 ft | 272 kts | 101° |
| 2026-05-05 22:37 | 52.45635 | 4.83303 | 7066 ft | 275 kts | 131° |
| 2026-05-05 22:38 | 52.44071 | 4.85065 | 7847 ft | 277 kts | 165° |
| 2026-05-05 22:38 | 52.42184 | 4.85375 | 8557 ft | 279 kts | 181° |
| 2026-05-05 22:38 | 52.40214 | 4.85309 | 9297 ft | 286 kts | 182° |
| 2026-05-05 22:38 | 52.38191 | 4.85210 | 10139 ft | 289 kts | 182° |
| 2026-05-05 22:39 | 52.36157 | 4.85113 | 10606 ft | 308 kts | 182° |
| 2026-05-05 22:39 | 52.33916 | 4.85019 | 10811 ft | 336 kts | 182° |
| 2026-05-05 22:39 | 52.31488 | 4.84935 | 11031 ft | 363 kts | 182° |
| 2026-05-05 22:39 | 52.28907 | 4.84861 | 11674 ft | 376 kts | 181° |
| 2026-05-05 22:40 | 52.26259 | 4.84797 | 12562 ft | 384 kts | 181° |
| 2026-05-05 22:40 | 52.23556 | 4.84738 | 13561 ft | 391 kts | 181° |
| 2026-05-05 22:40 | 52.20817 | 4.84682 | 14482 ft | 396 kts | 181° |
| 2026-05-05 22:40 | 52.18043 | 4.84626 | 15442 ft | 400 kts | 181° |
| 2026-05-05 22:41 | 52.15242 | 4.84569 | 16407 ft | 404 kts | 181° |
| 2026-05-05 22:41 | 52.12403 | 4.84511 | 17312 ft | 410 kts | 181° |
| 2026-05-05 22:41 | 52.09536 | 4.84453 | 18220 ft | 415 kts | 181° |
| 2026-05-05 22:41 | 52.06666 | 4.84394 | 19006 ft | 419 kts | 181° |
| 2026-05-05 22:42 | 52.03750 | 4.84067 | 19816 ft | 422 kts | 189° |
| 2026-05-05 22:42 | 52.00873 | 4.83017 | 20624 ft | 425 kts | 197° |
| 2026-05-05 22:42 | 51.98091 | 4.81355 | 21432 ft | 428 kts | 205° |
| 2026-05-05 22:42 | 51.95417 | 4.79199 | 22191 ft | 432 kts | 208° |
| 2026-05-05 22:43 | 51.92846 | 4.77104 | 22884 ft | 437 kts | 207° |
| 2026-05-05 22:43 | 51.90003 | 4.74833 | 23618 ft | 441 kts | 207° |
| 2026-05-05 22:43 | 51.87239 | 4.72666 | 24315 ft | 442 kts | 206° |
| 2026-05-05 22:43 | 51.84455 | 4.70499 | 24940 ft | 446 kts | 206° |
| 2026-05-05 22:44 | 51.81646 | 4.68315 | 25495 ft | 450 kts | 206° |
| 2026-05-05 22:44 | 51.78818 | 4.66118 | 26185 ft | 451 kts | 206° |
| 2026-05-05 22:44 | 51.75978 | 4.63911 | 26659 ft | 456 kts | 206° |
| 2026-05-05 22:44 | 51.73143 | 4.61709 | 27250 ft | 458 kts | 205° |
| 2026-05-05 22:45 | 51.70262 | 4.59472 | 27831 ft | 461 kts | 205° |
| 2026-05-05 22:45 | 51.67361 | 4.57224 | 28235 ft | 466 kts | 205° |
| 2026-05-05 22:45 | 51.64427 | 4.54954 | 28837 ft | 467 kts | 205° |
| 2026-05-05 22:45 | 51.61498 | 4.52689 | 29248 ft | 471 kts | 205° |
| 2026-05-05 22:46 | 51.58521 | 4.50389 | 29608 ft | 475 kts | 205° |
| 2026-05-05 22:46 | 51.55548 | 4.48094 | 30143 ft | 474 kts | 205° |
| 2026-05-05 22:46 | 51.52587 | 4.45811 | 30725 ft | 471 kts | 205° |
| 2026-05-05 22:46 | 51.49638 | 4.43540 | 31295 ft | 468 kts | 205° |
| 2026-05-05 22:47 | 51.46704 | 4.41284 | 31832 ft | 466 kts | 205° |
| 2026-05-05 22:47 | 51.43789 | 4.39045 | 32330 ft | 465 kts | 205° |
| 2026-05-05 22:47 | 51.40869 | 4.36808 | 32785 ft | 465 kts | 205° |
| 2026-05-05 22:47 | 51.37952 | 4.34601 | 33288 ft | 464 kts | 205° |
| 2026-05-05 22:48 | 51.35031 | 4.32426 | 33810 ft | 462 kts | 205° |
| 2026-05-05 22:48 | 51.32115 | 4.30258 | 34243 ft | 461 kts | 205° |
| 2026-05-05 22:48 | 51.29210 | 4.28080 | 34569 ft | 461 kts | 205° |
| 2026-05-05 22:48 | 51.26314 | 4.25873 | 34859 ft | 462 kts | 206° |
| 2026-05-05 22:49 | 51.23419 | 4.23658 | 35177 ft | 462 kts | 206° |
| 2026-05-05 22:49 | 51.20516 | 4.21445 | 35511 ft | 461 kts | 206° |
| 2026-05-05 22:49 | 51.17654 | 4.19276 | 35866 ft | 461 kts | 205° |
| 2026-05-05 22:49 | 51.14693 | 4.17304 | 36189 ft | 462 kts | 200° |
| 2026-05-05 22:50 | 51.11643 | 4.15640 | 36499 ft | 462 kts | 199° |
| 2026-05-05 22:50 | 51.08599 | 4.14016 | 36814 ft | 461 kts | 199° |
| 2026-05-05 22:50 | 51.05554 | 4.12388 | 37117 ft | 461 kts | 199° |
| 2026-05-05 22:50 | 51.02516 | 4.10750 | 37408 ft | 461 kts | 199° |
| 2026-05-05 22:51 | 50.99487 | 4.09105 | 37698 ft | 460 kts | 199° |
| 2026-05-05 22:51 | 50.96438 | 4.07443 | 37814 ft | 464 kts | 199° |
| 2026-05-05 22:51 | 50.93377 | 4.05775 | 37876 ft | 466 kts | 199° |
| 2026-05-05 22:52 | 50.87269 | 4.02423 | 37870 ft | 462 kts | 201° |
| 2026-05-05 22:52 | 50.81369 | 3.98667 | 37877 ft | 458 kts | 202° |
| 2026-05-05 22:53 | 50.75482 | 3.94846 | 37875 ft | 457 kts | 202° |
| 2026-05-05 22:53 | 50.69586 | 3.91060 | 37867 ft | 457 kts | 202° |
| 2026-05-05 22:54 | 50.63690 | 3.87301 | 37869 ft | 458 kts | 202° |
| 2026-05-05 22:54 | 50.57778 | 3.83542 | 37865 ft | 459 kts | 202° |
| 2026-05-05 22:55 | 50.51888 | 3.79606 | 37865 ft | 460 kts | 204° |
| 2026-05-05 22:55 | 50.46017 | 3.75547 | 37853 ft | 461 kts | 204° |
| 2026-05-05 22:56 | 50.40133 | 3.71525 | 37853 ft | 462 kts | 204° |
| 2026-05-05 22:56 | 50.34276 | 3.67553 | 37850 ft | 462 kts | 204° |
| 2026-05-05 22:57 | 50.28372 | 3.63561 | 37850 ft | 462 kts | 204° |
| 2026-05-05 22:57 | 50.22481 | 3.59587 | 37857 ft | 461 kts | 203° |
| 2026-05-05 22:58 | 50.16906 | 3.54624 | 37838 ft | 463 kts | 217° |
| 2026-05-05 22:58 | 50.12104 | 3.47940 | 37845 ft | 463 kts | 225° |
| 2026-05-05 22:59 | 50.07628 | 3.40732 | 37843 ft | 462 kts | 225° |
| 2026-05-05 22:59 | 50.03195 | 3.33615 | 37850 ft | 460 kts | 225° |
| 2026-05-05 23:00 | 49.96479 | 3.22950 | 37851 ft | 459 kts | 225° |
| 2026-05-05 23:00 | 49.91990 | 3.15871 | 37843 ft | 461 kts | 225° |
| 2026-05-05 23:01 | 49.87492 | 3.08797 | 37857 ft | 461 kts | 225° |
| 2026-05-05 23:01 | 49.82984 | 3.01728 | 37853 ft | 462 kts | 225° |
| 2026-05-05 23:02 | 49.79221 | 2.95842 | 37847 ft | 462 kts | 224° |
| 2026-05-05 23:02 | 49.73935 | 2.87595 | 37862 ft | 462 kts | 224° |
| 2026-05-05 23:03 | 49.70172 | 2.81741 | 37843 ft | 461 kts | 224° |
| 2026-05-05 23:03 | 49.65657 | 2.74734 | 37847 ft | 460 kts | 224° |
| 2026-05-05 23:04 | 49.61145 | 2.67752 | 37852 ft | 459 kts | 224° |
| 2026-05-05 23:04 | 49.56638 | 2.60798 | 37862 ft | 458 kts | 224° |
| 2026-05-05 23:05 | 49.52121 | 2.53848 | 37862 ft | 459 kts | 224° |
| 2026-05-05 23:05 | 49.47601 | 2.46910 | 37858 ft | 460 kts | 224° |
| 2026-05-05 23:06 | 49.43067 | 2.39972 | 37857 ft | 460 kts | 224° |
| 2026-05-05 23:06 | 49.38529 | 2.33046 | 37876 ft | 461 kts | 224° |
| 2026-05-05 23:07 | 49.34005 | 2.26161 | 37877 ft | 461 kts | 224° |
| 2026-05-05 23:07 | 49.29449 | 2.19246 | 37878 ft | 461 kts | 224° |
| 2026-05-05 23:08 | 49.24883 | 2.12335 | 37860 ft | 461 kts | 223° |
| 2026-05-05 23:08 | 49.20276 | 2.05382 | 37868 ft | 469 kts | 223° |
| 2026-05-05 23:09 | 49.15585 | 1.98322 | 37867 ft | 476 kts | 223° |
| 2026-05-05 23:09 | 49.10827 | 1.91182 | 37869 ft | 482 kts | 223° |
| 2026-05-05 23:10 | 49.06018 | 1.83984 | 37861 ft | 486 kts | 223° |
| 2026-05-05 23:10 | 49.01170 | 1.76747 | 37869 ft | 488 kts | 223° |
| 2026-05-05 23:11 | 48.96305 | 1.69507 | 37866 ft | 489 kts | 223° |
| 2026-05-05 23:11 | 48.91426 | 1.62268 | 37888 ft | 490 kts | 223° |
| 2026-05-05 23:12 | 48.86572 | 1.55085 | 37876 ft | 490 kts | 223° |
| 2026-05-05 23:12 | 48.81688 | 1.47880 | 37879 ft | 489 kts | 223° |
| 2026-05-05 23:13 | 48.76793 | 1.40679 | 37886 ft | 489 kts | 223° |
| 2026-05-05 23:13 | 48.71910 | 1.33516 | 37899 ft | 489 kts | 223° |
| 2026-05-05 23:14 | 48.67017 | 1.26360 | 37898 ft | 489 kts | 223° |
| 2026-05-05 23:14 | 48.62116 | 1.19212 | 37904 ft | 490 kts | 223° |
| 2026-05-05 23:15 | 48.57198 | 1.12060 | 37894 ft | 490 kts | 223° |
| 2026-05-05 23:15 | 48.52287 | 1.04936 | 37901 ft | 489 kts | 223° |
| 2026-05-05 23:16 | 48.47385 | 0.97847 | 37896 ft | 488 kts | 223° |
| 2026-05-05 23:16 | 48.42511 | 0.90818 | 37878 ft | 487 kts | 223° |
| 2026-05-05 23:17 | 48.37606 | 0.83765 | 37896 ft | 487 kts | 223° |
| 2026-05-05 23:17 | 48.32704 | 0.76735 | 37904 ft | 487 kts | 223° |
| 2026-05-05 23:18 | 48.27793 | 0.69712 | 37904 ft | 487 kts | 223° |
| 2026-05-05 23:18 | 48.22875 | 0.62699 | 37928 ft | 489 kts | 223° |
| 2026-05-05 23:19 | 48.17917 | 0.55649 | 37892 ft | 492 kts | 223° |
| 2026-05-05 23:19 | 48.12974 | 0.48639 | 37891 ft | 492 kts | 223° |
| 2026-05-05 23:20 | 48.07965 | 0.41555 | 37885 ft | 492 kts | 222° |
| 2026-05-05 23:20 | 48.03021 | 0.34583 | 37883 ft | 492 kts | 222° |
| 2026-05-05 23:21 | 47.98033 | 0.27569 | 37888 ft | 491 kts | 222° |
| 2026-05-05 23:21 | 47.93061 | 0.20597 | 37884 ft | 491 kts | 222° |
| 2026-05-05 23:22 | 47.88076 | 0.13626 | 37899 ft | 491 kts | 222° |
| 2026-05-05 23:22 | 47.83078 | 0.06655 | 37894 ft | 493 kts | 222° |
| 2026-05-05 23:23 | 47.78066 | -0.00316 | 38024 ft | 493 kts | 223° |
| 2026-05-05 23:23 | 47.73047 | -0.07273 | 37924 ft | 495 kts | 223° |
| 2026-05-05 23:24 | 47.67990 | -0.14269 | 37912 ft | 495 kts | 223° |
| 2026-05-05 23:24 | 47.62940 | -0.21234 | 37911 ft | 496 kts | 223° |
| 2026-05-05 23:25 | 47.57884 | -0.28188 | 37913 ft | 496 kts | 223° |
| 2026-05-05 23:25 | 47.52850 | -0.35093 | 37913 ft | 496 kts | 223° |
| 2026-05-05 23:26 | 47.47787 | -0.42018 | 37908 ft | 496 kts | 223° |
| 2026-05-05 23:26 | 47.42714 | -0.48939 | 37908 ft | 496 kts | 223° |
| 2026-05-05 23:27 | 47.37624 | -0.55863 | 37903 ft | 496 kts | 223° |
| 2026-05-05 23:27 | 47.32539 | -0.62760 | 37905 ft | 497 kts | 223° |
| 2026-05-05 23:28 | 47.27447 | -0.69650 | 37900 ft | 497 kts | 223° |
| 2026-05-05 23:28 | 47.22343 | -0.76537 | 37902 ft | 498 kts | 223° |
| 2026-05-05 23:29 | 47.17261 | -0.83374 | 37899 ft | 498 kts | 223° |
| 2026-05-05 23:29 | 47.12148 | -0.90235 | 37898 ft | 499 kts | 223° |
| 2026-05-05 23:30 | 47.07007 | -0.97116 | 37899 ft | 499 kts | 223° |
| 2026-05-05 23:30 | 47.01862 | -1.03982 | 37898 ft | 500 kts | 223° |
| 2026-05-05 23:31 | 46.96699 | -1.10852 | 37899 ft | 501 kts | 223° |
| 2026-05-05 23:31 | 46.91533 | -1.17710 | 37891 ft | 502 kts | 223° |
| 2026-05-05 23:32 | 46.86384 | -1.24526 | 37891 ft | 502 kts | 223° |
| 2026-05-05 23:32 | 46.81198 | -1.31372 | 37887 ft | 502 kts | 223° |
| 2026-05-05 23:33 | 46.76000 | -1.38215 | 37886 ft | 502 kts | 223° |
| 2026-05-05 23:33 | 46.70810 | -1.45029 | 37884 ft | 502 kts | 223° |
| 2026-05-05 23:34 | 46.65609 | -1.51840 | 37887 ft | 503 kts | 223° |
| 2026-05-05 23:34 | 46.60398 | -1.58644 | 37895 ft | 503 kts | 223° |
| 2026-05-05 23:35 | 46.55189 | -1.65429 | 37894 ft | 502 kts | 223° |
| 2026-05-05 23:35 | 46.50015 | -1.72150 | 37905 ft | 502 kts | 223° |
| 2026-05-05 23:36 | 46.44796 | -1.78911 | 37908 ft | 502 kts | 223° |
| 2026-05-05 23:36 | 46.39579 | -1.85652 | 37919 ft | 502 kts | 222° |
| 2026-05-05 23:37 | 46.34348 | -1.92390 | 37918 ft | 503 kts | 222° |
| 2026-05-05 23:37 | 46.29116 | -1.99115 | 37915 ft | 503 kts | 223° |
| 2026-05-05 23:38 | 46.23880 | -2.05827 | 37926 ft | 502 kts | 222° |
| 2026-05-05 23:38 | 46.18641 | -2.12523 | 37921 ft | 502 kts | 222° |
| 2026-05-05 23:39 | 46.13437 | -2.19157 | 37923 ft | 502 kts | 223° |
| 2026-05-05 23:39 | 46.08198 | -2.25820 | 37928 ft | 502 kts | 222° |
| 2026-05-05 23:40 | 46.02949 | -2.32477 | 37927 ft | 502 kts | 222° |
| 2026-05-05 23:40 | 45.97703 | -2.39113 | 37931 ft | 502 kts | 222° |
| 2026-05-05 23:41 | 45.92453 | -2.45734 | 37928 ft | 502 kts | 222° |
| 2026-05-05 23:41 | 45.87200 | -2.52344 | 37931 ft | 502 kts | 222° |
| 2026-05-05 23:42 | 45.81945 | -2.58939 | 37934 ft | 502 kts | 222° |
| 2026-05-05 23:42 | 45.76688 | -2.65522 | 37932 ft | 502 kts | 222° |
| 2026-05-05 23:43 | 45.71417 | -2.72099 | 37935 ft | 502 kts | 222° |
| 2026-05-05 23:43 | 45.66186 | -2.78613 | 37941 ft | 502 kts | 222° |
| 2026-05-05 23:44 | 45.60911 | -2.85165 | 37940 ft | 501 kts | 222° |
| 2026-05-05 23:44 | 45.55637 | -2.91698 | 37944 ft | 501 kts | 222° |
| 2026-05-05 23:45 | 45.50366 | -2.98213 | 37946 ft | 501 kts | 222° |
| 2026-05-05 23:45 | 45.45093 | -3.04711 | 37955 ft | 501 kts | 222° |
| 2026-05-05 23:46 | 45.39819 | -3.11192 | 37951 ft | 501 kts | 222° |
| 2026-05-05 23:46 | 45.34567 | -3.17632 | 37953 ft | 501 kts | 222° |
| 2026-05-05 23:47 | 45.29282 | -3.24095 | 37957 ft | 500 kts | 222° |
| 2026-05-05 23:47 | 45.24002 | -3.30536 | 37960 ft | 500 kts | 222° |
| 2026-05-05 23:48 | 45.18719 | -3.36965 | 37957 ft | 500 kts | 222° |
| 2026-05-05 23:48 | 45.13467 | -3.43337 | 37967 ft | 499 kts | 223° |
| 2026-05-05 23:49 | 45.08190 | -3.49727 | 37969 ft | 499 kts | 222° |
| 2026-05-05 23:49 | 45.02909 | -3.56106 | 37972 ft | 499 kts | 222° |
| 2026-05-05 23:50 | 44.98484 | -3.61439 | 37975 ft | 499 kts | 222° |
| 2026-05-05 23:50 | 44.93203 | -3.67785 | 37979 ft | 499 kts | 222° |
| 2026-05-05 23:51 | 44.87945 | -3.74090 | 37979 ft | 499 kts | 222° |
| 2026-05-05 23:51 | 44.82655 | -3.80417 | 37977 ft | 498 kts | 222° |
| 2026-05-05 23:52 | 44.77363 | -3.86731 | 37985 ft | 498 kts | 222° |
| 2026-05-05 23:52 | 44.72074 | -3.93025 | 37988 ft | 498 kts | 222° |
| 2026-05-05 23:53 | 44.66773 | -3.99318 | 37999 ft | 499 kts | 222° |
| 2026-05-05 23:53 | 44.61467 | -4.05601 | 37996 ft | 498 kts | 222° |
| 2026-05-05 23:54 | 44.56164 | -4.11865 | 37998 ft | 498 kts | 222° |
| 2026-05-05 23:54 | 44.50847 | -4.18131 | 37996 ft | 499 kts | 222° |
| 2026-05-05 23:55 | 44.45538 | -4.24372 | 37996 ft | 498 kts | 222° |
| 2026-05-05 23:55 | 44.40219 | -4.30608 | 38003 ft | 498 kts | 222° |
| 2026-05-05 23:56 | 44.34925 | -4.36802 | 38006 ft | 498 kts | 221° |
| 2026-05-05 23:56 | 44.29604 | -4.43010 | 38010 ft | 499 kts | 221° |
| 2026-05-05 23:57 | 44.24279 | -4.49209 | 38013 ft | 499 kts | 221° |